sensor_id;sensor_type;location;lat;lon;timestamp;pressure;altitude;pressure_sealevel;temperature;humidity
692;BME280;70475;50.084;8.576;2023-10-31T00:02:18;98949.34;;;11.78;100.00
692;BME280;70475;50.084;8.576;2023-10-31T00:04:46;98957.81;;;11.75;100.00
692;BME280;70475;50.084;8.576;2023-10-31T00:07:13;98962.44;;;11.68;100.00
692;BME280;70475;50.084;8.576;2023-10-31T00:09:41;98954.66;;;11.67;100.00
692;BME280;70475;50.084;8.576;2023-10-31T00:12:09;98965.56;;;11.65;100.00
692;BME280;70475;50.084;8.576;2023-10-31T00:14:36;98975.78;;;11.68;100.00
692;BME280;70475;50.084;8.576;2023-10-31T00:17:05;98976.81;;;11.67;100.00
692;BME280;70475;50.084;8.576;2023-10-31T00:19:33;98985.72;;;11.61;100.00
692;BME280;70475;50.084;8.576;2023-10-31T00:22:00;98987.00;;;11.59;100.00
692;BME280;70475;50.084;8.576;2023-10-31T00:24:28;98977.59;;;11.56;100.00
692;BME280;70475;50.084;8.576;2023-10-31T00:26:55;98982.91;;;11.56;100.00
692;BME280;70475;50.084;8.576;2023-10-31T00:29:23;98987.31;;;11.51;100.00
692;BME280;70475;50.084;8.576;2023-10-31T00:31:50;98996.47;;;11.43;100.00
692;BME280;70475;50.084;8.576;2023-10-31T00:34:20;99000.41;;;11.41;100.00
692;BME280;70475;50.084;8.576;2023-10-31T00:36:46;99012.91;;;11.40;100.00
692;BME280;70475;50.084;8.576;2023-10-31T00:39:14;99015.13;;;11.43;100.00
692;BME280;70475;50.084;8.576;2023-10-31T00:41:43;99013.16;;;11.39;100.00
692;BME280;70475;50.084;8.576;2023-10-31T00:44:11;99021.06;;;11.45;100.00
692;BME280;70475;50.084;8.576;2023-10-31T00:46:39;99011.31;;;11.39;100.00
692;BME280;70475;50.084;8.576;2023-10-31T00:49:07;99013.38;;;11.37;100.00
692;BME280;70475;50.084;8.576;2023-10-31T00:51:36;99017.09;;;11.36;100.00
692;BME280;70475;50.084;8.576;2023-10-31T00:54:04;99008.72;;;11.33;100.00
692;BME280;70475;50.084;8.576;2023-10-31T00:56:31;99009.88;;;11.25;100.00
692;BME280;70475;50.084;8.576;2023-10-31T00:58:59;99022.38;;;11.25;100.00
692;BME280;70475;50.084;8.576;2023-10-31T01:01:26;99018.19;;;11.17;100.00
692;BME280;70475;50.084;8.576;2023-10-31T01:03:54;99017.75;;;11.20;100.00
692;BME280;70475;50.084;8.576;2023-10-31T01:06:21;99021.31;;;11.14;100.00
692;BME280;70475;50.084;8.576;2023-10-31T01:08:50;99023.94;;;11.03;100.00
692;BME280;70475;50.084;8.576;2023-10-31T01:11:18;99018.16;;;11.06;100.00
692;BME280;70475;50.084;8.576;2023-10-31T01:13:45;99023.00;;;10.97;100.00
692;BME280;70475;50.084;8.576;2023-10-31T01:16:13;99024.34;;;10.88;100.00
692;BME280;70475;50.084;8.576;2023-10-31T01:18:40;99018.06;;;10.83;100.00
692;BME280;70475;50.084;8.576;2023-10-31T01:21:08;99020.09;;;10.69;100.00
692;BME280;70475;50.084;8.576;2023-10-31T01:23:36;99014.78;;;10.69;100.00
692;BME280;70475;50.084;8.576;2023-10-31T01:26:05;99015.44;;;10.65;100.00
692;BME280;70475;50.084;8.576;2023-10-31T01:28:33;99022.22;;;10.61;100.00
692;BME280;70475;50.084;8.576;2023-10-31T01:31:00;99019.88;;;10.53;100.00
692;BME280;70475;50.084;8.576;2023-10-31T01:33:28;99021.81;;;10.46;100.00
692;BME280;70475;50.084;8.576;2023-10-31T01:35:56;99035.19;;;10.39;100.00
692;BME280;70475;50.084;8.576;2023-10-31T01:38:23;99039.91;;;10.37;100.00
692;BME280;70475;50.084;8.576;2023-10-31T01:40:51;99050.78;;;10.35;100.00
692;BME280;70475;50.084;8.576;2023-10-31T01:43:34;99058.63;;;10.30;100.00
692;BME280;70475;50.084;8.576;2023-10-31T01:46:02;99070.06;;;10.31;100.00
692;BME280;70475;50.084;8.576;2023-10-31T01:48:32;99067.19;;;10.32;100.00
692;BME280;70475;50.084;8.576;2023-10-31T01:51:03;99063.41;;;10.40;100.00
692;BME280;70475;50.084;8.576;2023-10-31T01:53:32;99063.41;;;10.40;100.00
692;BME280;70475;50.084;8.576;2023-10-31T01:56:00;99053.22;;;10.37;100.00
692;BME280;70475;50.084;8.576;2023-10-31T01:58:31;99055.22;;;10.41;100.00
692;BME280;70475;50.084;8.576;2023-10-31T02:01:00;99060.97;;;10.38;100.00
692;BME280;70475;50.084;8.576;2023-10-31T02:03:28;99064.03;;;10.42;100.00
692;BME280;70475;50.084;8.576;2023-10-31T02:05:57;99059.75;;;10.41;100.00
692;BME280;70475;50.084;8.576;2023-10-31T02:08:25;99055.16;;;10.48;100.00
692;BME280;70475;50.084;8.576;2023-10-31T02:10:53;99053.97;;;10.44;100.00
692;BME280;70475;50.084;8.576;2023-10-31T02:13:20;99064.25;;;10.40;100.00
692;BME280;70475;50.084;8.576;2023-10-31T02:15:48;99062.41;;;10.41;100.00
692;BME280;70475;50.084;8.576;2023-10-31T02:18:17;99068.28;;;10.43;100.00
692;BME280;70475;50.084;8.576;2023-10-31T02:20:45;99065.41;;;10.44;100.00
692;BME280;70475;50.084;8.576;2023-10-31T02:23:16;99059.31;;;10.44;100.00
692;BME280;70475;50.084;8.576;2023-10-31T02:25:44;99063.78;;;10.43;100.00
692;BME280;70475;50.084;8.576;2023-10-31T02:28:11;99064.41;;;10.46;100.00
692;BME280;70475;50.084;8.576;2023-10-31T02:30:39;99062.41;;;10.41;100.00
692;BME280;70475;50.084;8.576;2023-10-31T02:33:06;99059.78;;;10.34;100.00
692;BME280;70475;50.084;8.576;2023-10-31T02:35:34;99065.94;;;10.35;100.00
692;BME280;70475;50.084;8.576;2023-10-31T02:38:02;99073.53;;;10.31;100.00
692;BME280;70475;50.084;8.576;2023-10-31T02:40:30;99075.59;;;10.29;100.00
692;BME280;70475;50.084;8.576;2023-10-31T02:42:58;99076.50;;;10.23;100.00
692;BME280;70475;50.084;8.576;2023-10-31T02:45:25;99082.41;;;10.25;100.00
692;BME280;70475;50.084;8.576;2023-10-31T02:47:54;99081.13;;;10.28;100.00
692;BME280;70475;50.084;8.576;2023-10-31T02:50:22;99090.03;;;10.22;100.00
692;BME280;70475;50.084;8.576;2023-10-31T02:52:50;99093.69;;;10.21;100.00
692;BME280;70475;50.084;8.576;2023-10-31T02:55:17;99102.28;;;10.23;100.00
692;BME280;70475;50.084;8.576;2023-10-31T02:57:46;99107.38;;;10.24;100.00
692;BME280;70475;50.084;8.576;2023-10-31T03:00:15;99117.66;;;10.21;100.00
692;BME280;70475;50.084;8.576;2023-10-31T03:02:42;99112.00;;;10.11;100.00
692;BME280;70475;50.084;8.576;2023-10-31T03:05:10;99105.16;;;9.97;100.00
692;BME280;70475;50.084;8.576;2023-10-31T03:07:37;99112.00;;;9.86;100.00
692;BME280;70475;50.084;8.576;2023-10-31T03:10:06;99107.69;;;9.85;100.00
692;BME280;70475;50.084;8.576;2023-10-31T03:12:34;99119.28;;;9.66;100.00
692;BME280;70475;50.084;8.576;2023-10-31T03:15:03;99134.38;;;9.72;100.00
692;BME280;70475;50.084;8.576;2023-10-31T03:17:31;99140.50;;;9.73;100.00
692;BME280;70475;50.084;8.576;2023-10-31T03:19:59;99141.69;;;9.77;100.00
692;BME280;70475;50.084;8.576;2023-10-31T03:22:26;99144.34;;;9.77;100.00
692;BME280;70475;50.084;8.576;2023-10-31T03:24:54;99140.31;;;9.68;100.00
692;BME280;70475;50.084;8.576;2023-10-31T03:27:22;99142.22;;;9.61;100.00
692;BME280;70475;50.084;8.576;2023-10-31T03:29:49;99150.84;;;9.50;100.00
692;BME280;70475;50.084;8.576;2023-10-31T03:32:18;99166.44;;;9.46;100.00
692;BME280;70475;50.084;8.576;2023-10-31T03:34:46;99164.59;;;9.47;100.00
692;BME280;70475;50.084;8.576;2023-10-31T03:37:14;99171.13;;;9.51;100.00
692;BME280;70475;50.084;8.576;2023-10-31T03:39:41;99173.56;;;9.52;100.00
692;BME280;70475;50.084;8.576;2023-10-31T03:42:09;99183.75;;;9.55;100.00
692;BME280;70475;50.084;8.576;2023-10-31T03:44:36;99187.47;;;9.48;100.00
692;BME280;70475;50.084;8.576;2023-10-31T03:47:04;99193.16;;;9.51;100.00
692;BME280;70475;50.084;8.576;2023-10-31T03:49:33;99197.63;;;9.57;100.00
692;BME280;70475;50.084;8.576;2023-10-31T03:52:00;99196.84;;;9.57;100.00
692;BME280;70475;50.084;8.576;2023-10-31T03:54:28;99199.91;;;9.54;100.00
692;BME280;70475;50.084;8.576;2023-10-31T03:56:56;99200.75;;;9.48;100.00
692;BME280;70475;50.084;8.576;2023-10-31T03:59:23;99203.63;;;9.46;100.00
692;BME280;70475;50.084;8.576;2023-10-31T04:01:51;99204.84;;;9.50;100.00
692;BME280;70475;50.084;8.576;2023-10-31T04:04:18;99198.28;;;9.53;100.00
692;BME280;70475;50.084;8.576;2023-10-31T04:06:47;99193.00;;;9.46;100.00
692;BME280;70475;50.084;8.576;2023-10-31T04:09:15;99194.63;;;9.47;100.00
692;BME280;70475;50.084;8.576;2023-10-31T04:11:42;99197.06;;;9.49;100.00
692;BME280;70475;50.084;8.576;2023-10-31T04:14:10;99192.19;;;9.46;100.00
692;BME280;70475;50.084;8.576;2023-10-31T04:16:39;99186.88;;;9.46;100.00
692;BME280;70475;50.084;8.576;2023-10-31T04:19:12;99198.31;;;9.46;100.00
692;BME280;70475;50.084;8.576;2023-10-31T04:21:39;99195.63;;;9.53;100.00
692;BME280;70475;50.084;8.576;2023-10-31T04:24:08;99203.16;;;9.56;100.00
692;BME280;70475;50.084;8.576;2023-10-31T04:26:36;99190.69;;;9.56;100.00
692;BME280;70475;50.084;8.576;2023-10-31T04:29:04;99192.72;;;9.61;100.00
692;BME280;70475;50.084;8.576;2023-10-31T04:31:31;99196.16;;;9.68;100.00
692;BME280;70475;50.084;8.576;2023-10-31T04:34:09;99192.28;;;9.70;100.00
692;BME280;70475;50.084;8.576;2023-10-31T04:36:37;99199.00;;;9.73;100.00
692;BME280;70475;50.084;8.576;2023-10-31T04:39:04;99198.13;;;9.79;100.00
692;BME280;70475;50.084;8.576;2023-10-31T04:41:33;99197.28;;;9.85;100.00
692;BME280;70475;50.084;8.576;2023-10-31T04:44:01;99192.75;;;9.85;100.00
692;BME280;70475;50.084;8.576;2023-10-31T04:46:29;99198.94;;;9.79;100.00
692;BME280;70475;50.084;8.576;2023-10-31T04:48:56;99189.47;;;9.90;100.00
692;BME280;70475;50.084;8.576;2023-10-31T04:51:24;99186.22;;;9.88;100.00
692;BME280;70475;50.084;8.576;2023-10-31T04:53:52;99194.78;;;9.90;100.00
692;BME280;70475;50.084;8.576;2023-10-31T04:56:19;99191.91;;;9.91;100.00
692;BME280;70475;50.084;8.576;2023-10-31T04:58:48;99197.06;;;9.86;100.00
692;BME280;70475;50.084;8.576;2023-10-31T05:01:16;99199.09;;;9.91;100.00
692;BME280;70475;50.084;8.576;2023-10-31T05:03:43;99199.25;;;9.96;100.00
692;BME280;70475;50.084;8.576;2023-10-31T05:06:19;99204.13;;;9.99;100.00
692;BME280;70475;50.084;8.576;2023-10-31T05:08:47;99200.28;;;9.95;100.00
692;BME280;70475;50.084;8.576;2023-10-31T05:11:16;99200.94;;;9.90;100.00
692;BME280;70475;50.084;8.576;2023-10-31T05:13:44;99211.56;;;9.90;100.00
692;BME280;70475;50.084;8.576;2023-10-31T05:16:13;99201.25;;;10.00;100.00
692;BME280;70475;50.084;8.576;2023-10-31T05:18:41;99202.44;;;10.11;100.00
692;BME280;70475;50.084;8.576;2023-10-31T05:21:08;99206.16;;;10.10;100.00
692;BME280;70475;50.084;8.576;2023-10-31T05:23:35;99208.81;;;10.10;100.00
692;BME280;70475;50.084;8.576;2023-10-31T05:26:05;99207.34;;;10.14;100.00
692;BME280;70475;50.084;8.576;2023-10-31T05:28:33;99187.31;;;10.11;100.00
692;BME280;70475;50.084;8.576;2023-10-31T05:31:00;99199.78;;;10.11;100.00
692;BME280;70475;50.084;8.576;2023-10-31T05:33:29;99193.81;;;10.15;100.00
692;BME280;70475;50.084;8.576;2023-10-31T05:35:57;99194.03;;;10.14;100.00
692;BME280;70475;50.084;8.576;2023-10-31T05:38:24;99199.19;;;10.09;100.00
692;BME280;70475;50.084;8.576;2023-10-31T05:40:52;99211.47;;;10.03;100.00
692;BME280;70475;50.084;8.576;2023-10-31T05:43:19;99217.22;;;10.07;100.00
692;BME280;70475;50.084;8.576;2023-10-31T05:45:47;99218.84;;;10.08;100.00
692;BME280;70475;50.084;8.576;2023-10-31T05:48:14;99211.78;;;10.20;100.00
692;BME280;70475;50.084;8.576;2023-10-31T05:50:44;99216.72;;;10.16;100.00
692;BME280;70475;50.084;8.576;2023-10-31T05:53:11;99217.53;;;10.17;100.00
692;BME280;70475;50.084;8.576;2023-10-31T05:55:39;99217.16;;;10.13;100.00
692;BME280;70475;50.084;8.576;2023-10-31T05:58:07;99221.69;;;10.13;100.00
692;BME280;70475;50.084;8.576;2023-10-31T06:00:34;99223.28;;;10.14;100.00
692;BME280;70475;50.084;8.576;2023-10-31T06:03:02;99230.66;;;10.12;100.00
692;BME280;70475;50.084;8.576;2023-10-31T06:05:30;99242.53;;;10.16;100.00
692;BME280;70475;50.084;8.576;2023-10-31T06:07:59;99233.06;;;10.20;100.00
692;BME280;70475;50.084;8.576;2023-10-31T06:10:27;99240.28;;;10.13;100.00
692;BME280;70475;50.084;8.576;2023-10-31T06:12:54;99244.16;;;10.17;100.00
692;BME280;70475;50.084;8.576;2023-10-31T06:15:22;99250.72;;;10.14;100.00
692;BME280;70475;50.084;8.576;2023-10-31T06:18:03;99250.94;;;10.13;100.00
692;BME280;70475;50.084;8.576;2023-10-31T06:20:31;99245.97;;;10.16;100.00
692;BME280;70475;50.084;8.576;2023-10-31T06:23:02;99259.47;;;10.21;100.00
692;BME280;70475;50.084;8.576;2023-10-31T06:25:30;99264.16;;;10.26;100.00
692;BME280;70475;50.084;8.576;2023-10-31T06:27:58;99263.94;;;10.27;100.00
692;BME280;70475;50.084;8.576;2023-10-31T06:30:25;99275.00;;;10.24;100.00
692;BME280;70475;50.084;8.576;2023-10-31T06:32:54;99276.69;;;10.19;100.00
692;BME280;70475;50.084;8.576;2023-10-31T06:35:22;99278.69;;;10.23;100.00
692;BME280;70475;50.084;8.576;2023-10-31T06:37:51;99268.63;;;10.25;100.00
692;BME280;70475;50.084;8.576;2023-10-31T06:40:20;99282.00;;;10.19;100.00
692;BME280;70475;50.084;8.576;2023-10-31T06:42:47;99288.97;;;10.13;100.00
692;BME280;70475;50.084;8.576;2023-10-31T06:45:15;99295.13;;;10.14;100.00
692;BME280;70475;50.084;8.576;2023-10-31T06:47:42;99289.94;;;10.25;100.00
692;BME280;70475;50.084;8.576;2023-10-31T06:50:10;99289.50;;;10.28;100.00
692;BME280;70475;50.084;8.576;2023-10-31T06:52:38;99298.88;;;10.31;100.00
692;BME280;70475;50.084;8.576;2023-10-31T06:55:06;99296.44;;;10.29;100.00
692;BME280;70475;50.084;8.576;2023-10-31T06:57:35;99297.66;;;10.33;100.00
692;BME280;70475;50.084;8.576;2023-10-31T07:00:03;99296.06;;;10.26;100.00
692;BME280;70475;50.084;8.576;2023-10-31T07:02:34;99291.34;;;10.28;100.00
692;BME280;70475;50.084;8.576;2023-10-31T07:05:03;99299.31;;;10.28;100.00
692;BME280;70475;50.084;8.576;2023-10-31T07:07:31;99304.81;;;10.33;100.00
692;BME280;70475;50.084;8.576;2023-10-31T07:09:58;99307.09;;;10.29;100.00
692;BME280;70475;50.084;8.576;2023-10-31T07:12:26;99305.25;;;10.30;100.00
692;BME280;70475;50.084;8.576;2023-10-31T07:14:55;99309.50;;;10.37;100.00
692;BME280;70475;50.084;8.576;2023-10-31T07:17:25;99316.06;;;10.35;100.00
692;BME280;70475;50.084;8.576;2023-10-31T07:19:52;99322.25;;;10.29;100.00
692;BME280;70475;50.084;8.576;2023-10-31T07:22:20;99322.19;;;10.35;100.00
692;BME280;70475;50.084;8.576;2023-10-31T07:24:48;99326.31;;;10.31;100.00
692;BME280;70475;50.084;8.576;2023-10-31T07:27:16;99326.72;;;10.35;100.00
692;BME280;70475;50.084;8.576;2023-10-31T07:29:43;99330.75;;;10.44;100.00
692;BME280;70475;50.084;8.576;2023-10-31T07:32:14;99335.28;;;10.37;100.00
692;BME280;70475;50.084;8.576;2023-10-31T07:34:41;99343.44;;;10.42;100.00
692;BME280;70475;50.084;8.576;2023-10-31T07:37:10;99342.25;;;10.38;100.00
692;BME280;70475;50.084;8.576;2023-10-31T07:39:37;99343.47;;;10.35;100.00
692;BME280;70475;50.084;8.576;2023-10-31T07:42:05;99342.25;;;10.38;100.00
692;BME280;70475;50.084;8.576;2023-10-31T07:44:33;99343.53;;;10.29;100.00
692;BME280;70475;50.084;8.576;2023-10-31T07:47:00;99345.72;;;10.38;100.00
692;BME280;70475;50.084;8.576;2023-10-31T07:49:29;99354.53;;;10.39;100.00
692;BME280;70475;50.084;8.576;2023-10-31T07:51:57;99356.13;;;10.47;100.00
692;BME280;70475;50.084;8.576;2023-10-31T07:54:24;99352.63;;;10.46;100.00
692;BME280;70475;50.084;8.576;2023-10-31T07:56:52;99357.94;;;10.46;100.00
692;BME280;70475;50.084;8.576;2023-10-31T07:59:21;99368.03;;;10.44;100.00
692;BME280;70475;50.084;8.576;2023-10-31T08:01:49;99374.94;;;10.52;100.00
692;BME280;70475;50.084;8.576;2023-10-31T08:04:19;99378.81;;;10.49;100.00
692;BME280;70475;50.084;8.576;2023-10-31T08:06:47;99381.47;;;10.49;100.00
692;BME280;70475;50.084;8.576;2023-10-31T08:09:15;99376.97;;;10.50;100.00
692;BME280;70475;50.084;8.576;2023-10-31T08:11:43;99378.38;;;10.59;100.00
692;BME280;70475;50.084;8.576;2023-10-31T08:14:11;99385.50;;;10.65;100.00
692;BME280;70475;50.084;8.576;2023-10-31T08:16:38;99395.72;;;10.68;100.00
692;BME280;70475;50.084;8.576;2023-10-31T08:19:06;99383.81;;;10.70;100.00
692;BME280;70475;50.084;8.576;2023-10-31T08:21:33;99385.84;;;10.75;100.00
692;BME280;70475;50.084;8.576;2023-10-31T08:24:04;99393.63;;;10.70;100.00
692;BME280;70475;50.084;8.576;2023-10-31T08:26:32;99397.78;;;10.90;100.00
692;BME280;70475;50.084;8.576;2023-10-31T08:29:00;99394.59;;;10.82;100.00
692;BME280;70475;50.084;8.576;2023-10-31T08:31:28;99393.06;;;10.92;100.00
692;BME280;70475;50.084;8.576;2023-10-31T08:33:55;99404.81;;;10.85;100.00
692;BME280;70475;50.084;8.576;2023-10-31T08:36:23;99397.66;;;10.85;100.00
692;BME280;70475;50.084;8.576;2023-10-31T08:38:51;99395.53;;;10.94;100.00
692;BME280;70475;50.084;8.576;2023-10-31T08:41:19;99410.44;;;11.01;100.00
692;BME280;70475;50.084;8.576;2023-10-31T08:43:47;99408.91;;;11.12;100.00
692;BME280;70475;50.084;8.576;2023-10-31T08:46:15;99410.09;;;11.16;100.00
692;BME280;70475;50.084;8.576;2023-10-31T08:48:43;99404.56;;;11.17;100.00
692;BME280;70475;50.084;8.576;2023-10-31T08:51:10;99422.34;;;11.23;100.00
692;BME280;70475;50.084;8.576;2023-10-31T08:53:38;99427.59;;;11.30;100.00
692;BME280;70475;50.084;8.576;2023-10-31T08:56:06;99430.75;;;11.45;100.00
692;BME280;70475;50.084;8.576;2023-10-31T08:58:36;99440.41;;;11.46;100.00
692;BME280;70475;50.084;8.576;2023-10-31T09:01:03;99439.56;;;11.45;100.00
692;BME280;70475;50.084;8.576;2023-10-31T09:03:31;99436.75;;;11.40;100.00
692;BME280;70475;50.084;8.576;2023-10-31T09:05:58;99435.50;;;11.43;100.00
692;BME280;70475;50.084;8.576;2023-10-31T09:08:26;99435.00;;;11.52;100.00
692;BME280;70475;50.084;8.576;2023-10-31T09:10:53;99443.88;;;11.46;100.00
692;BME280;70475;50.084;8.576;2023-10-31T09:13:21;99442.72;;;11.60;100.00
692;BME280;70475;50.084;8.576;2023-10-31T09:15:52;99449.88;;;11.66;100.00
692;BME280;70475;50.084;8.576;2023-10-31T09:18:20;99448.06;;;11.60;100.00
692;BME280;70475;50.084;8.576;2023-10-31T09:20:47;99457.00;;;11.72;100.00
692;BME280;70475;50.084;8.576;2023-10-31T09:23:15;99458.91;;;11.65;100.00
692;BME280;70475;50.084;8.576;2023-10-31T09:25:43;99467.75;;;11.84;100.00
692;BME280;70475;50.084;8.576;2023-10-31T09:28:11;99469.47;;;11.96;100.00
692;BME280;70475;50.084;8.576;2023-10-31T09:30:38;99470.66;;;12.00;100.00
692;BME280;70475;50.084;8.576;2023-10-31T09:33:10;99473.63;;;11.92;100.00
692;BME280;70475;50.084;8.576;2023-10-31T09:35:38;99474.56;;;11.98;100.00
692;BME280;70475;50.084;8.576;2023-10-31T09:38:05;99476.31;;;12.10;100.00
692;BME280;70475;50.084;8.576;2023-10-31T09:40:33;99478.88;;;12.17;100.00
692;BME280;70475;50.084;8.576;2023-10-31T09:43:00;99485.94;;;12.11;100.00
692;BME280;70475;50.084;8.576;2023-10-31T09:45:28;99480.31;;;12.01;100.00
692;BME280;70475;50.084;8.576;2023-10-31T09:47:56;99476.00;;;12.18;100.00
692;BME280;70475;50.084;8.576;2023-10-31T09:50:26;99477.94;;;12.11;100.00
692;BME280;70475;50.084;8.576;2023-10-31T09:52:55;99475.88;;;12.31;100.00
692;BME280;70475;50.084;8.576;2023-10-31T09:55:24;99483.94;;;12.43;100.00
692;BME280;70475;50.084;8.576;2023-10-31T09:57:51;99488.00;;;12.45;100.00
692;BME280;70475;50.084;8.576;2023-10-31T10:00:19;99480.59;;;12.48;100.00
692;BME280;70475;50.084;8.576;2023-10-31T10:02:47;99496.84;;;12.28;100.00
692;BME280;70475;50.084;8.576;2023-10-31T10:05:16;99478.22;;;12.21;100.00
692;BME280;70475;50.084;8.576;2023-10-31T10:07:45;99480.16;;;12.32;100.00
692;BME280;70475;50.084;8.576;2023-10-31T10:10:12;99482.66;;;12.27;100.00
692;BME280;70475;50.084;8.576;2023-10-31T10:12:41;99486.84;;;12.41;100.00
692;BME280;70475;50.084;8.576;2023-10-31T10:15:09;99485.34;;;12.27;100.00
692;BME280;70475;50.084;8.576;2023-10-31T10:17:38;99484.59;;;12.20;100.00
692;BME280;70475;50.084;8.576;2023-10-31T10:20:07;99482.44;;;12.29;100.00
692;BME280;70475;50.084;8.576;2023-10-31T10:22:37;99485.78;;;12.42;100.00
692;BME280;70475;50.084;8.576;2023-10-31T10:25:10;99494.06;;;12.52;100.00
692;BME280;70475;50.084;8.576;2023-10-31T10:27:42;99488.88;;;12.58;100.00
692;BME280;70475;50.084;8.576;2023-10-31T10:30:10;99491.38;;;12.71;100.00
692;BME280;70475;50.084;8.576;2023-10-31T10:32:38;99489.63;;;12.46;100.00
692;BME280;70475;50.084;8.576;2023-10-31T10:35:07;99492.44;;;12.52;100.00
692;BME280;70475;50.084;8.576;2023-10-31T10:37:37;99481.44;;;12.60;100.00
692;BME280;70475;50.084;8.576;2023-10-31T10:40:10;99486.69;;;12.84;100.00
692;BME280;70475;50.084;8.576;2023-10-31T10:42:44;99489.88;;;12.75;100.00
692;BME280;70475;50.084;8.576;2023-10-31T10:45:14;99468.63;;;12.68;100.00
692;BME280;70475;50.084;8.576;2023-10-31T10:47:45;99480.63;;;12.77;100.00
692;BME280;70475;50.084;8.576;2023-10-31T10:50:14;99490.00;;;12.98;100.00
692;BME280;70475;50.084;8.576;2023-10-31T10:52:44;99489.13;;;13.04;100.00
692;BME280;70475;50.084;8.576;2023-10-31T10:55:20;99484.88;;;13.26;100.00
692;BME280;70475;50.084;8.576;2023-10-31T10:57:56;99485.34;;;13.34;100.00
692;BME280;70475;50.084;8.576;2023-10-31T11:00:28;99480.84;;;13.46;100.00
692;BME280;70475;50.084;8.576;2023-10-31T11:02:57;99479.88;;;13.41;100.00
692;BME280;70475;50.084;8.576;2023-10-31T11:05:24;99481.50;;;13.30;100.00
692;BME280;70475;50.084;8.576;2023-10-31T11:07:53;99482.69;;;13.69;100.00
692;BME280;70475;50.084;8.576;2023-10-31T11:10:25;99470.16;;;13.46;100.00
692;BME280;70475;50.084;8.576;2023-10-31T11:12:54;99474.56;;;13.64;100.00
692;BME280;70475;50.084;8.576;2023-10-31T11:15:23;99475.81;;;13.50;100.00
692;BME280;70475;50.084;8.576;2023-10-31T11:17:51;99471.41;;;13.44;100.00
692;BME280;70475;50.084;8.576;2023-10-31T11:20:20;99473.28;;;13.55;100.00
692;BME280;70475;50.084;8.576;2023-10-31T11:22:54;99477.72;;;13.61;100.00
692;BME280;70475;50.084;8.576;2023-10-31T11:25:25;99473.41;;;13.71;100.00
692;BME280;70475;50.084;8.576;2023-10-31T11:28:11;99482.69;;;13.46;100.00
692;BME280;70475;50.084;8.576;2023-10-31T11:30:39;99474.06;;;13.32;100.00
692;BME280;70475;50.084;8.576;2023-10-31T11:33:11;99467.91;;;13.32;100.00
692;BME280;70475;50.084;8.576;2023-10-31T11:35:40;99476.03;;;13.37;100.00
692;BME280;70475;50.084;8.576;2023-10-31T11:38:08;99484.69;;;13.50;100.00
692;BME280;70475;50.084;8.576;2023-10-31T11:40:58;99477.72;;;13.61;100.00
692;BME280;70475;50.084;8.576;2023-10-31T11:43:36;99482.13;;;13.67;100.00
692;BME280;70475;50.084;8.576;2023-10-31T11:46:04;99480.22;;;13.33;100.00
692;BME280;70475;50.084;8.576;2023-10-31T11:48:45;99481.75;;;13.29;100.00
692;BME280;70475;50.084;8.576;2023-10-31T11:51:13;99481.41;;;13.37;100.00
692;BME280;70475;50.084;8.576;2023-10-31T11:53:41;99481.75;;;13.40;100.00
692;BME280;70475;50.084;8.576;2023-10-31T11:56:11;99492.59;;;13.57;100.00
692;BME280;70475;50.084;8.576;2023-10-31T11:58:39;99494.69;;;13.43;100.00
692;BME280;70475;50.084;8.576;2023-10-31T12:01:08;99495.13;;;13.40;100.00
692;BME280;70475;50.084;8.576;2023-10-31T12:03:36;99497.97;;;13.57;100.00
692;BME280;70475;50.084;8.576;2023-10-31T12:06:05;99505.03;;;13.63;100.00
692;BME280;70475;50.084;8.576;2023-10-31T12:08:34;99499.25;;;13.77;100.00
692;BME280;70475;50.084;8.576;2023-10-31T12:11:04;99502.63;;;13.84;100.00
692;BME280;70475;50.084;8.576;2023-10-31T12:13:34;99507.28;;;13.89;100.00
692;BME280;70475;50.084;8.576;2023-10-31T12:16:02;99506.31;;;13.72;100.00
692;BME280;70475;50.084;8.576;2023-10-31T12:18:30;99502.94;;;13.88;100.00
692;BME280;70475;50.084;8.576;2023-10-31T12:20:58;99512.16;;;13.80;100.00
692;BME280;70475;50.084;8.576;2023-10-31T12:23:25;99514.72;;;13.64;100.00
692;BME280;70475;50.084;8.576;2023-10-31T12:25:53;99517.53;;;13.80;100.00
692;BME280;70475;50.084;8.576;2023-10-31T12:28:22;99533.13;;;14.06;100.00
692;BME280;70475;50.084;8.576;2023-10-31T12:30:52;99524.81;;;13.73;100.00
692;BME280;70475;50.084;8.576;2023-10-31T12:33:21;99529.22;;;13.56;100.00
692;BME280;70475;50.084;8.576;2023-10-31T12:35:52;99533.72;;;13.33;100.00
692;BME280;70475;50.084;8.576;2023-10-31T12:38:24;99527.25;;;13.75;100.00
692;BME280;70475;50.084;8.576;2023-10-31T12:40:52;99530.28;;;13.67;100.00
692;BME280;70475;50.084;8.576;2023-10-31T12:43:21;99520.06;;;13.87;100.00
692;BME280;70475;50.084;8.576;2023-10-31T12:45:49;99531.03;;;14.08;100.00
692;BME280;70475;50.084;8.576;2023-10-31T12:48:23;99531.38;;;14.35;100.00
692;BME280;70475;50.084;8.576;2023-10-31T12:51:05;99529.84;;;14.51;100.00
692;BME280;70475;50.084;8.576;2023-10-31T12:53:33;99520.47;;;14.65;100.00
692;BME280;70475;50.084;8.576;2023-10-31T12:56:01;99529.13;;;14.55;100.00
692;BME280;70475;50.084;8.576;2023-10-31T12:58:29;99531.91;;;14.60;100.00
692;BME280;70475;50.084;8.576;2023-10-31T13:00:57;99530.06;;;14.49;100.00
692;BME280;70475;50.084;8.576;2023-10-31T13:03:27;99537.78;;;14.11;100.00
692;BME280;70475;50.084;8.576;2023-10-31T13:05:54;99538.59;;;14.11;100.00
692;BME280;70475;50.084;8.576;2023-10-31T13:08:22;99531.25;;;14.07;100.00
692;BME280;70475;50.084;8.576;2023-10-31T13:10:50;99538.56;;;14.00;100.00
692;BME280;70475;50.084;8.576;2023-10-31T13:13:19;99541.25;;;13.77;100.00
692;BME280;70475;50.084;8.576;2023-10-31T13:15:47;99543.69;;;13.78;100.00
692;BME280;70475;50.084;8.576;2023-10-31T13:18:15;99538.69;;;13.82;100.00
692;BME280;70475;50.084;8.576;2023-10-31T13:20:44;99542.84;;;13.78;100.00